N777MQ CYYC-CYVR
Flight info
| Callsign | N777MQ |
|---|---|
| Flight time | 1h 1m |
| Altitude | 38000 |
| Route | STAMP2/35L BOTAG Q894 BOOTH CANUC6 |
| Aircraft | B77W/H-SDE1E2E3FGHIJ2J3J4J5M1RWXY/LB1D1 |
Departure
| Time | 2026-05-03 21:40 |
|---|---|
| Airport | Calgary International Airport (CYYC) |
Arrival
| Time | 2026-05-03 22:41 |
|---|---|
| Airport | Vancouver International Airport (CYVR) |
| Time | Latitude | Longitude | Altitude | Speed | Heading |
|---|---|---|---|---|---|
| 2026-05-03 21:20 | 51.12909 | -114.03060 | 3542 ft | 0 kts | 32° |
| 2026-05-03 21:26 | 51.12897 | -114.03073 | 3541 ft | 3 kts | 39° |
| 2026-05-03 21:26 | 51.12882 | -114.03094 | 3542 ft | 3 kts | 52° |
| 2026-05-03 21:26 | 51.12871 | -114.03121 | 3541 ft | 3 kts | 65° |
| 2026-05-03 21:27 | 51.12864 | -114.03150 | 3541 ft | 3 kts | 79° |
| 2026-05-03 21:27 | 51.12862 | -114.03182 | 3542 ft | 3 kts | 91° |
| 2026-05-03 21:27 | 51.12863 | -114.03214 | 3542 ft | 3 kts | 101° |
| 2026-05-03 21:27 | 51.12868 | -114.03245 | 3543 ft | 3 kts | 109° |
| 2026-05-03 21:28 | 51.12876 | -114.03274 | 3539 ft | 3 kts | 117° |
| 2026-05-03 21:28 | 51.12882 | -114.03293 | 3540 ft | 1 kts | 120° |
| 2026-05-03 21:28 | 51.12882 | -114.03294 | 3540 ft | 0 kts | 120° |
| 2026-05-03 21:30 | 51.12882 | -114.03293 | 3540 ft | 1 kts | 120° |
| 2026-05-03 21:30 | 51.12872 | -114.03267 | 3538 ft | 5 kts | 120° |
| 2026-05-03 21:30 | 51.12850 | -114.03205 | 3539 ft | 8 kts | 120° |
| 2026-05-03 21:30 | 51.12795 | -114.03162 | 3544 ft | 11 kts | 191° |
| 2026-05-03 21:31 | 51.12721 | -114.03122 | 3544 ft | 13 kts | 131° |
| 2026-05-03 21:31 | 51.12666 | -114.02982 | 3543 ft | 17 kts | 120° |
| 2026-05-03 21:31 | 51.12614 | -114.02791 | 3547 ft | 21 kts | 104° |
| 2026-05-03 21:31 | 51.12604 | -114.02553 | 3548 ft | 19 kts | 90° |
| 2026-05-03 21:32 | 51.12566 | -114.02425 | 3547 ft | 14 kts | 161° |
| 2026-05-03 21:32 | 51.12457 | -114.02417 | 3548 ft | 18 kts | 179° |
| 2026-05-03 21:32 | 51.12324 | -114.02418 | 3547 ft | 20 kts | 180° |
| 2026-05-03 21:32 | 51.12175 | -114.02417 | 3551 ft | 23 kts | 180° |
| 2026-05-03 21:33 | 51.12001 | -114.02418 | 3548 ft | 27 kts | 180° |
| 2026-05-03 21:33 | 51.11825 | -114.02417 | 3552 ft | 23 kts | 180° |
| 2026-05-03 21:33 | 51.11655 | -114.02418 | 3553 ft | 26 kts | 180° |
| 2026-05-03 21:33 | 51.11467 | -114.02417 | 3555 ft | 27 kts | 180° |
| 2026-05-03 21:34 | 51.11282 | -114.02416 | 3558 ft | 27 kts | 180° |
| 2026-05-03 21:34 | 51.11099 | -114.02417 | 3560 ft | 27 kts | 180° |
| 2026-05-03 21:34 | 51.10912 | -114.02419 | 3556 ft | 27 kts | 180° |
| 2026-05-03 21:34 | 51.10721 | -114.02443 | 3555 ft | 28 kts | 198° |
| 2026-05-03 21:35 | 51.10533 | -114.02538 | 3560 ft | 29 kts | 197° |
| 2026-05-03 21:35 | 51.10325 | -114.02576 | 3557 ft | 30 kts | 179° |
| 2026-05-03 21:35 | 51.10123 | -114.02577 | 3557 ft | 29 kts | 180° |
| 2026-05-03 21:35 | 51.09928 | -114.02578 | 3563 ft | 22 kts | 180° |
| 2026-05-03 21:36 | 51.09809 | -114.02482 | 3566 ft | 14 kts | 118° |
| 2026-05-03 21:36 | 51.09805 | -114.02470 | 3567 ft | 0 kts | 117° |
| 2026-05-03 21:38 | 51.09791 | -114.02429 | 3562 ft | 8 kts | 117° |
| 2026-05-03 21:38 | 51.09756 | -114.02320 | 3566 ft | 13 kts | 117° |
| 2026-05-03 21:38 | 51.09723 | -114.02191 | 3572 ft | 13 kts | 84° |
| 2026-05-03 21:38 | 51.09801 | -114.02138 | 3567 ft | 14 kts | 2° |
| 2026-05-03 21:39 | 51.10085 | -114.02131 | 3561 ft | 79 kts | 1° |
| 2026-05-03 21:39 | 51.10352 | -114.02114 | 3559 ft | 110 kts | 5° |
| 2026-05-03 21:39 | 51.11125 | -114.02133 | 3562 ft | 161 kts | 360° |
| 2026-05-03 21:39 | 51.12394 | -114.02181 | 3774 ft | 191 kts | 1° |
| 2026-05-03 21:40 | 51.13686 | -114.02263 | 4689 ft | 180 kts | 358° |
| 2026-05-03 21:40 | 51.14917 | -114.02316 | 5503 ft | 176 kts | 355° |
| 2026-05-03 21:40 | 51.16183 | -114.02451 | 6001 ft | 196 kts | 354° |
| 2026-05-03 21:40 | 51.17641 | -114.02661 | 6212 ft | 222 kts | 354° |
| 2026-05-03 21:41 | 51.19300 | -114.02832 | 6425 ft | 253 kts | 356° |
| 2026-05-03 21:41 | 51.21045 | -114.02987 | 7307 ft | 253 kts | 353° |
| 2026-05-03 21:41 | 51.22828 | -114.03234 | 8130 ft | 262 kts | 352° |
| 2026-05-03 21:41 | 51.24641 | -114.03523 | 9073 ft | 262 kts | 351° |
| 2026-05-03 21:42 | 51.26442 | -114.04015 | 9780 ft | 266 kts | 334° |
| 2026-05-03 21:42 | 51.27890 | -114.05818 | 10481 ft | 273 kts | 307° |
| 2026-05-03 21:42 | 51.28749 | -114.08677 | 10740 ft | 304 kts | 285° |
| 2026-05-03 21:42 | 51.28861 | -114.12214 | 11059 ft | 335 kts | 265° |
| 2026-05-03 21:43 | 51.28286 | -114.15828 | 11890 ft | 348 kts | 250° |
| 2026-05-03 21:43 | 51.27024 | -114.19166 | 13050 ft | 354 kts | 237° |
| 2026-05-03 21:43 | 51.25488 | -114.22263 | 14219 ft | 358 kts | 234° |
| 2026-05-03 21:43 | 51.23880 | -114.25375 | 15088 ft | 368 kts | 236° |
| 2026-05-03 21:44 | 51.22252 | -114.28595 | 15973 ft | 377 kts | 237° |
| 2026-05-03 21:44 | 51.20622 | -114.31921 | 16899 ft | 384 kts | 238° |
| 2026-05-03 21:44 | 51.18991 | -114.35334 | 17857 ft | 390 kts | 239° |
| 2026-05-03 21:44 | 51.17349 | -114.38823 | 18721 ft | 397 kts | 240° |
| 2026-05-03 21:45 | 51.15689 | -114.42370 | 19581 ft | 401 kts | 240° |
| 2026-05-03 21:45 | 51.14013 | -114.45957 | 20446 ft | 406 kts | 239° |
| 2026-05-03 21:45 | 51.12316 | -114.49585 | 21277 ft | 412 kts | 239° |
| 2026-05-03 21:45 | 51.10615 | -114.53213 | 22105 ft | 417 kts | 239° |
| 2026-05-03 21:46 | 51.08900 | -114.56955 | 22979 ft | 418 kts | 243° |
| 2026-05-03 21:46 | 51.07474 | -114.60970 | 23765 ft | 417 kts | 250° |
| 2026-05-03 21:46 | 51.06359 | -114.65222 | 24441 ft | 417 kts | 256° |
| 2026-05-03 21:46 | 51.05569 | -114.69651 | 25105 ft | 417 kts | 262° |
| 2026-05-03 21:47 | 51.04921 | -114.74161 | 25753 ft | 422 kts | 262° |
| 2026-05-03 21:47 | 51.04242 | -114.78730 | 26359 ft | 427 kts | 262° |
| 2026-05-03 21:47 | 51.03528 | -114.83330 | 27004 ft | 431 kts | 261° |
| 2026-05-03 21:47 | 51.02781 | -114.87981 | 27565 ft | 437 kts | 261° |
| 2026-05-03 21:48 | 51.02023 | -114.92628 | 27980 ft | 443 kts | 261° |
| 2026-05-03 21:48 | 51.01244 | -114.97391 | 28593 ft | 447 kts | 261° |
| 2026-05-03 21:48 | 51.00460 | -115.02184 | 29224 ft | 450 kts | 261° |
| 2026-05-03 21:48 | 50.99670 | -115.07010 | 29818 ft | 454 kts | 261° |
| 2026-05-03 21:49 | 50.98871 | -115.11885 | 30277 ft | 458 kts | 261° |
| 2026-05-03 21:49 | 50.98066 | -115.16793 | 30723 ft | 461 kts | 261° |
| 2026-05-03 21:49 | 50.97255 | -115.21719 | 31205 ft | 463 kts | 261° |
| 2026-05-03 21:49 | 50.96442 | -115.26654 | 31769 ft | 462 kts | 261° |
| 2026-05-03 21:50 | 50.95638 | -115.31511 | 32346 ft | 461 kts | 261° |
| 2026-05-03 21:50 | 50.94821 | -115.36423 | 32835 ft | 461 kts | 261° |
| 2026-05-03 21:50 | 50.94003 | -115.41334 | 33384 ft | 461 kts | 261° |
| 2026-05-03 21:50 | 50.93184 | -115.46237 | 33962 ft | 459 kts | 261° |
| 2026-05-03 21:51 | 50.92364 | -115.51122 | 34381 ft | 458 kts | 261° |
| 2026-05-03 21:51 | 50.91545 | -115.55998 | 34794 ft | 458 kts | 261° |
| 2026-05-03 21:51 | 50.90727 | -115.60868 | 35206 ft | 458 kts | 261° |
| 2026-05-03 21:51 | 50.89907 | -115.65751 | 35600 ft | 458 kts | 261° |
| 2026-05-03 21:52 | 50.89084 | -115.70628 | 36027 ft | 458 kts | 261° |
| 2026-05-03 21:52 | 50.88260 | -115.75488 | 36420 ft | 457 kts | 261° |
| 2026-05-03 21:52 | 50.87442 | -115.80303 | 36658 ft | 461 kts | 261° |
| 2026-05-03 21:52 | 50.86594 | -115.85275 | 37028 ft | 461 kts | 261° |
| 2026-05-03 21:53 | 50.85767 | -115.90102 | 37364 ft | 461 kts | 261° |
| 2026-05-03 21:53 | 50.84927 | -115.95007 | 37573 ft | 464 kts | 261° |
| 2026-05-03 21:53 | 50.84084 | -115.99908 | 37977 ft | 462 kts | 260° |
| 2026-05-03 21:53 | 50.83234 | -116.04833 | 37938 ft | 465 kts | 260° |
| 2026-05-03 21:54 | 50.81530 | -116.14652 | 37941 ft | 459 kts | 260° |
| 2026-05-03 21:54 | 50.79840 | -116.24355 | 37933 ft | 457 kts | 260° |
| 2026-05-03 21:55 | 50.78158 | -116.33974 | 37957 ft | 458 kts | 260° |
| 2026-05-03 21:55 | 50.76449 | -116.43698 | 38009 ft | 461 kts | 260° |
| 2026-05-03 21:56 | 50.74664 | -116.53462 | 38006 ft | 465 kts | 258° |
| 2026-05-03 21:56 | 50.72748 | -116.63256 | 38014 ft | 468 kts | 258° |
| 2026-05-03 21:57 | 50.70808 | -116.73088 | 38019 ft | 473 kts | 258° |
| 2026-05-03 21:57 | 50.68855 | -116.83034 | 38014 ft | 483 kts | 258° |
| 2026-05-03 21:58 | 50.66849 | -116.93231 | 37959 ft | 491 kts | 258° |
| 2026-05-03 21:58 | 50.64805 | -117.03552 | 37967 ft | 495 kts | 258° |
| 2026-05-03 21:59 | 50.62741 | -117.13914 | 37967 ft | 498 kts | 257° |
| 2026-05-03 21:59 | 50.60658 | -117.24322 | 37945 ft | 499 kts | 258° |
| 2026-05-03 22:00 | 50.58578 | -117.34679 | 37997 ft | 501 kts | 257° |
| 2026-05-03 22:00 | 50.56464 | -117.45136 | 38009 ft | 501 kts | 257° |
| 2026-05-03 22:01 | 50.54337 | -117.55595 | 37976 ft | 502 kts | 257° |
| 2026-05-03 22:01 | 50.52202 | -117.66048 | 37971 ft | 502 kts | 257° |
| 2026-05-03 22:02 | 50.50057 | -117.76468 | 37975 ft | 501 kts | 257° |
| 2026-05-03 22:02 | 50.47911 | -117.86890 | 37974 ft | 502 kts | 257° |
| 2026-05-03 22:03 | 50.45751 | -117.97304 | 37967 ft | 502 kts | 257° |
| 2026-05-03 22:03 | 50.43591 | -118.07654 | 37995 ft | 503 kts | 257° |
| 2026-05-03 22:04 | 50.41401 | -118.18100 | 37985 ft | 505 kts | 257° |
| 2026-05-03 22:04 | 50.39198 | -118.28549 | 37993 ft | 505 kts | 257° |
| 2026-05-03 22:05 | 50.36986 | -118.38987 | 37994 ft | 504 kts | 257° |
| 2026-05-03 22:05 | 50.34781 | -118.49341 | 37981 ft | 504 kts | 257° |
| 2026-05-03 22:06 | 50.32556 | -118.59735 | 37986 ft | 503 kts | 257° |
| 2026-05-03 22:06 | 50.30323 | -118.70116 | 37994 ft | 503 kts | 256° |
| 2026-05-03 22:07 | 50.28084 | -118.80473 | 37970 ft | 502 kts | 257° |
| 2026-05-03 22:07 | 50.25834 | -118.90828 | 38000 ft | 504 kts | 257° |
| 2026-05-03 22:08 | 50.23582 | -119.01144 | 37919 ft | 505 kts | 256° |
| 2026-05-03 22:08 | 50.21303 | -119.11527 | 37982 ft | 506 kts | 256° |
| 2026-05-03 22:09 | 50.19007 | -119.21936 | 37960 ft | 509 kts | 256° |
| 2026-05-03 22:10 | 50.15524 | -119.37631 | 37960 ft | 511 kts | 256° |
| 2026-05-03 22:10 | 50.13183 | -119.48104 | 37976 ft | 512 kts | 256° |
| 2026-05-03 22:11 | 50.10877 | -119.58338 | 37957 ft | 490 kts | 256° |
| 2026-05-03 22:11 | 50.09759 | -119.63264 | 37835 ft | 476 kts | 256° |
| 2026-05-03 22:11 | 50.08666 | -119.68090 | 37382 ft | 471 kts | 256° |
| 2026-05-03 22:11 | 50.07585 | -119.72870 | 37022 ft | 464 kts | 256° |
| 2026-05-03 22:12 | 50.06519 | -119.77582 | 36620 ft | 459 kts | 257° |
| 2026-05-03 22:12 | 50.05465 | -119.82235 | 36248 ft | 454 kts | 257° |
| 2026-05-03 22:12 | 50.04415 | -119.86846 | 35865 ft | 449 kts | 257° |
| 2026-05-03 22:12 | 50.03390 | -119.91337 | 35489 ft | 445 kts | 257° |
| 2026-05-03 22:13 | 50.02357 | -119.95852 | 35105 ft | 441 kts | 256° |
| 2026-05-03 22:13 | 50.01334 | -120.00319 | 34706 ft | 437 kts | 256° |
| 2026-05-03 22:13 | 50.00317 | -120.04746 | 34300 ft | 434 kts | 256° |
| 2026-05-03 22:13 | 49.99305 | -120.09142 | 33895 ft | 431 kts | 256° |
| 2026-05-03 22:14 | 49.98298 | -120.13510 | 33464 ft | 427 kts | 256° |
| 2026-05-03 22:14 | 49.97299 | -120.17835 | 33048 ft | 424 kts | 256° |
| 2026-05-03 22:14 | 49.96306 | -120.22123 | 32652 ft | 420 kts | 256° |
| 2026-05-03 22:14 | 49.95318 | -120.26376 | 32258 ft | 417 kts | 256° |
| 2026-05-03 22:15 | 49.94352 | -120.30532 | 31861 ft | 413 kts | 255° |
| 2026-05-03 22:15 | 49.93379 | -120.34708 | 31476 ft | 410 kts | 255° |
| 2026-05-03 22:15 | 49.92413 | -120.38846 | 31089 ft | 407 kts | 255° |
| 2026-05-03 22:15 | 49.91450 | -120.42964 | 30701 ft | 404 kts | 255° |
| 2026-05-03 22:16 | 49.90493 | -120.47049 | 30289 ft | 401 kts | 254° |
| 2026-05-03 22:16 | 49.89543 | -120.51102 | 29890 ft | 399 kts | 254° |
| 2026-05-03 22:16 | 49.88595 | -120.55131 | 29440 ft | 396 kts | 254° |
| 2026-05-03 22:16 | 49.87654 | -120.59118 | 29031 ft | 392 kts | 254° |
| 2026-05-03 22:17 | 49.86722 | -120.63066 | 28638 ft | 388 kts | 253° |
| 2026-05-03 22:17 | 49.85808 | -120.66924 | 28240 ft | 385 kts | 253° |
| 2026-05-03 22:17 | 49.84891 | -120.70794 | 27856 ft | 381 kts | 253° |
| 2026-05-03 22:17 | 49.83978 | -120.74639 | 27456 ft | 378 kts | 253° |
| 2026-05-03 22:18 | 49.83072 | -120.78446 | 27072 ft | 375 kts | 253° |
| 2026-05-03 22:18 | 49.82172 | -120.82227 | 26697 ft | 373 kts | 253° |
| 2026-05-03 22:18 | 49.81277 | -120.85978 | 26327 ft | 370 kts | 253° |
| 2026-05-03 22:18 | 49.80387 | -120.89704 | 25934 ft | 368 kts | 253° |
| 2026-05-03 22:19 | 49.79501 | -120.93409 | 25566 ft | 366 kts | 253° |
| 2026-05-03 22:19 | 49.78617 | -120.97090 | 25190 ft | 364 kts | 253° |
| 2026-05-03 22:19 | 49.77738 | -121.00754 | 24806 ft | 362 kts | 253° |
| 2026-05-03 22:19 | 49.76873 | -121.04344 | 24452 ft | 360 kts | 252° |
| 2026-05-03 22:20 | 49.75999 | -121.07968 | 24080 ft | 359 kts | 252° |
| 2026-05-03 22:20 | 49.75130 | -121.11573 | 23692 ft | 357 kts | 252° |
| 2026-05-03 22:20 | 49.74263 | -121.15161 | 23293 ft | 355 kts | 252° |
| 2026-05-03 22:20 | 49.73397 | -121.18736 | 22880 ft | 354 kts | 252° |
| 2026-05-03 22:21 | 49.72537 | -121.22276 | 22479 ft | 352 kts | 252° |
| 2026-05-03 22:21 | 49.71682 | -121.25796 | 22108 ft | 349 kts | 252° |
| 2026-05-03 22:21 | 49.70829 | -121.29300 | 21710 ft | 347 kts | 252° |
| 2026-05-03 22:21 | 49.69981 | -121.32778 | 21350 ft | 345 kts | 252° |
| 2026-05-03 22:22 | 49.69137 | -121.36232 | 20972 ft | 343 kts | 252° |
| 2026-05-03 22:22 | 49.68308 | -121.39621 | 20631 ft | 341 kts | 252° |
| 2026-05-03 22:22 | 49.67471 | -121.43038 | 20270 ft | 339 kts | 251° |
| 2026-05-03 22:22 | 49.66638 | -121.46437 | 19884 ft | 338 kts | 251° |
| 2026-05-03 22:23 | 49.65807 | -121.49820 | 19526 ft | 336 kts | 251° |
| 2026-05-03 22:23 | 49.64978 | -121.53189 | 19146 ft | 336 kts | 251° |
| 2026-05-03 22:23 | 49.64148 | -121.56549 | 18789 ft | 334 kts | 251° |
| 2026-05-03 22:23 | 49.63323 | -121.59895 | 18430 ft | 333 kts | 251° |
| 2026-05-03 22:24 | 49.62508 | -121.63194 | 18034 ft | 334 kts | 251° |
| 2026-05-03 22:24 | 49.61671 | -121.66575 | 17616 ft | 333 kts | 251° |
| 2026-05-03 22:24 | 49.60859 | -121.69854 | 17239 ft | 331 kts | 251° |
| 2026-05-03 22:24 | 49.60037 | -121.73165 | 16867 ft | 330 kts | 251° |
| 2026-05-03 22:25 | 49.59218 | -121.76461 | 16507 ft | 328 kts | 251° |
| 2026-05-03 22:25 | 49.58402 | -121.79736 | 16143 ft | 327 kts | 250° |
| 2026-05-03 22:25 | 49.57589 | -121.82997 | 15788 ft | 325 kts | 250° |
| 2026-05-03 22:25 | 49.56782 | -121.86230 | 15441 ft | 323 kts | 250° |
| 2026-05-03 22:26 | 49.55976 | -121.89451 | 15095 ft | 322 kts | 250° |
| 2026-05-03 22:26 | 49.55174 | -121.92657 | 14735 ft | 320 kts | 250° |
| 2026-05-03 22:26 | 49.54387 | -121.95799 | 14394 ft | 319 kts | 250° |
| 2026-05-03 22:26 | 49.53589 | -121.98982 | 14041 ft | 319 kts | 250° |
| 2026-05-03 22:27 | 49.52787 | -122.02162 | 13656 ft | 318 kts | 250° |
| 2026-05-03 22:27 | 49.51958 | -122.05312 | 13253 ft | 317 kts | 245° |
| 2026-05-03 22:27 | 49.50855 | -122.08237 | 12899 ft | 315 kts | 238° |
| 2026-05-03 22:27 | 49.49664 | -122.11055 | 12547 ft | 314 kts | 238° |
| 2026-05-03 22:28 | 49.48492 | -122.13880 | 12192 ft | 313 kts | 239° |
| 2026-05-03 22:28 | 49.47341 | -122.16715 | 11854 ft | 312 kts | 239° |
| 2026-05-03 22:28 | 49.46204 | -122.19560 | 11489 ft | 312 kts | 240° |
| 2026-05-03 22:28 | 49.45090 | -122.22362 | 11148 ft | 311 kts | 240° |
| 2026-05-03 22:29 | 49.43966 | -122.25199 | 10811 ft | 310 kts | 239° |
| 2026-05-03 22:29 | 49.42863 | -122.27980 | 10690 ft | 298 kts | 240° |
| 2026-05-03 22:29 | 49.41815 | -122.30615 | 10539 ft | 282 kts | 239° |
| 2026-05-03 22:29 | 49.40810 | -122.33141 | 10403 ft | 273 kts | 239° |
| 2026-05-03 22:30 | 49.39804 | -122.35557 | 10203 ft | 269 kts | 233° |
| 2026-05-03 22:30 | 49.38576 | -122.37748 | 9962 ft | 273 kts | 227° |
| 2026-05-03 22:30 | 49.37280 | -122.39905 | 9617 ft | 276 kts | 228° |
| 2026-05-03 22:30 | 49.35997 | -122.42086 | 9321 ft | 274 kts | 229° |
| 2026-05-03 22:31 | 49.34730 | -122.44218 | 8982 ft | 274 kts | 228° |
| 2026-05-03 22:31 | 49.33453 | -122.46372 | 8673 ft | 273 kts | 228° |
| 2026-05-03 22:31 | 49.32186 | -122.48523 | 8376 ft | 272 kts | 228° |
| 2026-05-03 22:31 | 49.30919 | -122.50674 | 8053 ft | 271 kts | 228° |
| 2026-05-03 22:32 | 49.29660 | -122.52816 | 7765 ft | 270 kts | 229° |
| 2026-05-03 22:32 | 49.28403 | -122.54957 | 7449 ft | 270 kts | 228° |
| 2026-05-03 22:32 | 49.27151 | -122.57095 | 7139 ft | 269 kts | 228° |
| 2026-05-03 22:32 | 49.25901 | -122.59229 | 6848 ft | 269 kts | 228° |
| 2026-05-03 22:33 | 49.24653 | -122.61360 | 6537 ft | 269 kts | 228° |
| 2026-05-03 22:33 | 49.23416 | -122.63470 | 6229 ft | 270 kts | 228° |
| 2026-05-03 22:33 | 49.22160 | -122.65604 | 5902 ft | 270 kts | 227° |
| 2026-05-03 22:33 | 49.20906 | -122.67740 | 5580 ft | 269 kts | 229° |
| 2026-05-03 22:34 | 49.19823 | -122.70049 | 5280 ft | 267 kts | 238° |
| 2026-05-03 22:34 | 49.18899 | -122.72433 | 5053 ft | 251 kts | 239° |
| 2026-05-03 22:34 | 49.18039 | -122.74644 | 4986 ft | 236 kts | 239° |
| 2026-05-03 22:34 | 49.17203 | -122.76750 | 4983 ft | 231 kts | 238° |
| 2026-05-03 22:35 | 49.16383 | -122.78860 | 4981 ft | 229 kts | 246° |
| 2026-05-03 22:35 | 49.16097 | -122.81208 | 4916 ft | 226 kts | 275° |
| 2026-05-03 22:35 | 49.16307 | -122.83506 | 4729 ft | 216 kts | 279° |
| 2026-05-03 22:35 | 49.16548 | -122.85706 | 4503 ft | 201 kts | 279° |
| 2026-05-03 22:36 | 49.16778 | -122.87721 | 4217 ft | 185 kts | 279° |
| 2026-05-03 22:36 | 49.17000 | -122.89635 | 4029 ft | 188 kts | 279° |
| 2026-05-03 22:36 | 49.17226 | -122.91584 | 3988 ft | 184 kts | 279° |
| 2026-05-03 22:36 | 49.17442 | -122.93448 | 3799 ft | 171 kts | 279° |
| 2026-05-03 22:37 | 49.17642 | -122.95197 | 3337 ft | 162 kts | 280° |
| 2026-05-03 22:37 | 49.17837 | -122.96837 | 2781 ft | 151 kts | 280° |
| 2026-05-03 22:37 | 49.18017 | -122.98394 | 2217 ft | 143 kts | 279° |
| 2026-05-03 22:37 | 49.18178 | -122.99802 | 2138 ft | 147 kts | 279° |
| 2026-05-03 22:38 | 49.18357 | -123.01355 | 1902 ft | 147 kts | 278° |
| 2026-05-03 22:38 | 49.18533 | -123.02894 | 1733 ft | 147 kts | 279° |
| 2026-05-03 22:38 | 49.18709 | -123.04437 | 1527 ft | 146 kts | 279° |
| 2026-05-03 22:38 | 49.18885 | -123.05939 | 1328 ft | 142 kts | 278° |
| 2026-05-03 22:39 | 49.19060 | -123.07456 | 1173 ft | 147 kts | 279° |
| 2026-05-03 22:39 | 49.19230 | -123.08963 | 930 ft | 140 kts | 279° |
| 2026-05-03 22:39 | 49.19402 | -123.10420 | 754 ft | 142 kts | 280° |
| 2026-05-03 22:39 | 49.19576 | -123.11887 | 588 ft | 138 kts | 280° |
| 2026-05-03 22:40 | 49.19750 | -123.13296 | 402 ft | 132 kts | 278° |
| 2026-05-03 22:40 | 49.19888 | -123.14676 | 250 ft | 137 kts | 281° |
| 2026-05-03 22:40 | 49.20058 | -123.16100 | 91 ft | 135 kts | 281° |
| 2026-05-03 22:40 | 49.20220 | -123.17466 | 22 ft | 119 kts | 280° |
| 2026-05-03 22:41 | 49.20311 | -123.18275 | 24 ft | 43 kts | 276° |
| 2026-05-03 22:41 | 49.20266 | -123.18626 | 26 ft | 16 kts | 249° |
| 2026-05-03 22:41 | 49.20229 | -123.18784 | 26 ft | 16 kts | 251° |
| 2026-05-03 22:41 | 49.20224 | -123.18809 | 23 ft | 0 kts | 251° |
| 2026-05-03 22:42 | 49.20224 | -123.18810 | 23 ft | 1 kts | 251° |
| 2026-05-03 22:42 | 49.20221 | -123.18824 | 25 ft | 2 kts | 251° |
| 2026-05-03 22:42 | 49.20213 | -123.18857 | 26 ft | 4 kts | 249° |
| 2026-05-03 22:42 | 49.20200 | -123.18907 | 26 ft | 6 kts | 249° |
| 2026-05-03 22:43 | 49.20182 | -123.18972 | 25 ft | 7 kts | 239° |
| 2026-05-03 22:43 | 49.20141 | -123.19021 | 24 ft | 8 kts | 204° |
| 2026-05-03 22:43 | 49.20078 | -123.19046 | 25 ft | 11 kts | 193° |
| 2026-05-03 22:43 | 49.19997 | -123.19065 | 26 ft | 13 kts | 188° |
| 2026-05-03 22:44 | 49.19899 | -123.19089 | 23 ft | 15 kts | 190° |
| 2026-05-03 22:44 | 49.19811 | -123.19080 | 25 ft | 13 kts | 139° |
| 2026-05-03 22:44 | 49.19780 | -123.18944 | 23 ft | 15 kts | 97° |
| 2026-05-03 22:44 | 49.19767 | -123.18780 | 23 ft | 17 kts | 101° |
| 2026-05-03 22:45 | 49.19718 | -123.18623 | 24 ft | 17 kts | 107° |
| 2026-05-03 22:45 | 49.19692 | -123.18451 | 22 ft | 11 kts | 97° |
| 2026-05-03 22:45 | 49.19650 | -123.18381 | 24 ft | 9 kts | 170° |
| 2026-05-03 22:45 | 49.19620 | -123.18384 | 22 ft | 0 kts | 184° |